createdAt,value
2022-08-26T00:00:00.000Z,7.29
2022-08-26T00:15:00.000Z,7.05
2022-08-26T00:30:00.000Z,7.12
2022-08-26T00:45:00.000Z,7.2
2022-08-26T01:00:00.000Z,7.52
2022-08-26T01:15:00.000Z,7.44
2022-08-26T01:30:00.000Z,7.42
2022-08-26T01:45:00.000Z,7.39
2022-08-26T02:00:00.000Z,7.64
2022-08-26T02:15:00.000Z,7.56
2022-08-26T02:30:00.000Z,7.44
2022-08-26T02:45:00.000Z,7.25
2022-08-26T03:00:00.000Z,7.32
2022-08-26T03:15:00.000Z,7.34
2022-08-26T03:30:00.000Z,7.42
2022-08-26T04:00:00.000Z,7
2022-08-26T04:00:00.000Z,7.13
2022-08-26T04:15:00.000Z,7.19
2022-08-26T04:30:00.000Z,7.11
2022-08-26T04:45:00.000Z,7.12
2022-08-26T05:00:00.000Z,6.85
2022-08-26T05:15:00.000Z,7.12
2022-08-26T05:30:00.000Z,6.79
2022-08-26T06:00:00.000Z,7
2022-08-26T06:00:00.000Z,6.55
2022-08-26T06:15:00.000Z,5.8
2022-08-26T06:30:00.000Z,5.84
2022-08-26T06:45:00.000Z,6.06
2022-08-26T07:00:00.000Z,5.58
2022-08-26T07:15:00.000Z,5.44
2022-08-26T07:45:00.000Z,5
2022-08-26T07:45:00.000Z,5.42
2022-08-26T08:00:00.000Z,6.36
2022-08-26T08:15:00.000Z,7.48
2022-08-26T08:30:00.000Z,8.05
2022-08-26T08:45:00.000Z,8.82
2022-08-26T09:00:00.000Z,7.79
2022-08-26T09:15:00.000Z,7.78
2022-08-26T09:30:00.000Z,7.85
2022-08-26T09:45:00.000Z,7.81
2022-08-26T10:00:00.000Z,7.95
2022-08-26T10:15:00.000Z,8.39
2022-08-26T10:30:00.000Z,9.46
2022-08-26T10:45:00.000Z,8.24
2022-08-26T11:00:00.000Z,8.67
2022-08-26T11:15:00.000Z,8.99
2022-08-26T11:30:00.000Z,8.21
2022-08-26T11:45:00.000Z,8.07
2022-08-26T12:00:00.000Z,7.31
2022-08-26T12:15:00.000Z,6.41
2022-08-26T12:30:00.000Z,5.67
2022-08-26T12:45:00.000Z,5.42
2022-08-26T13:00:00.000Z,5.45
2022-08-26T13:15:00.000Z,5.34
2022-08-26T13:30:00.000Z,5.27
2022-08-26T13:45:00.000Z,4.22
2022-08-26T14:00:00.000Z,4.69
2022-08-26T14:15:00.000Z,5.84
2022-08-26T14:30:00.000Z,5.28
2022-08-26T14:45:00.000Z,6.41
2022-08-26T15:00:00.000Z,5.79
2022-08-26T15:15:00.000Z,5.61
2022-08-26T15:30:00.000Z,6.52
2022-08-26T15:45:00.000Z,6.88
2022-08-26T16:00:00.000Z,5.71
2022-08-26T16:15:00.000Z,6.02
2022-08-26T16:30:00.000Z,6.01
2022-08-26T16:45:00.000Z,5.55
2022-08-26T17:00:00.000Z,5.02
2022-08-26T17:15:00.000Z,5.04
2022-08-26T17:30:00.000Z,5.14
2022-08-26T17:45:00.000Z,4.96
2022-08-26T18:00:00.000Z,4.81
2022-08-26T18:15:00.000Z,4.93
2022-08-26T18:30:00.000Z,5.27
2022-08-26T18:45:00.000Z,4.93
2022-08-26T19:00:00.000Z,5.34
2022-08-26T19:15:00.000Z,5.47
2022-08-26T19:30:00.000Z,5.4
2022-08-26T19:45:00.000Z,4.99
2022-08-26T20:00:00.000Z,5.31
2022-08-26T20:30:00.000Z,5
2022-08-26T20:30:00.000Z,5.28
2022-08-26T20:45:00.000Z,5.33
2022-08-26T21:00:00.000Z,5.6
2022-08-26T21:15:00.000Z,5.05
2022-08-26T21:30:00.000Z,3.89
2022-08-26T21:45:00.000Z,3.44
2022-08-26T22:00:00.000Z,3.31
2022-08-26T22:15:00.000Z,3.66
2022-08-26T22:30:00.000Z,3.62
2022-08-26T22:45:00.000Z,3.61
2022-08-26T23:15:00.000Z,3
2022-08-26T23:15:00.000Z,3.61
2022-08-26T23:30:00.000Z,3.96
2022-08-26T23:45:00.000Z,3.79
